Time;durP1;ratioP1;P1;durP2;ratioP2;P2;SDS_P1;SDS_P2;PMS_P1;PMS_P2;Temp;Humidity;BMP_temperature;BMP_pressure;BME280_temperature;BME280_humidity;BME280_pressure;Samples;Min_cycle;Max_cycle;Signal;HPM_P1;HPM_P2
2023/08/21 00:01:15;;;;;;;7.28;3.88;;;29.90;69.80;;;;;;5007364;28;20157;-56
2023/08/21 00:03:40;;;;;;;7.07;4.35;;;29.90;69.80;;;;;;5007404;28;20030;-56
2023/08/21 00:06:06;;;;;;;5.93;4.35;;;29.80;69.90;;;;;;5007467;28;20022;-56
2023/08/21 00:08:31;;;;;;;6.35;4.13;;;29.80;70.10;;;;;;5007327;28;20340;-56
2023/08/21 00:10:57;;;;;;;9.07;4.68;;;29.80;70.20;;;;;;5007196;28;20035;-56
2023/08/21 00:13:22;;;;;;;7.10;4.18;;;29.80;70.20;;;;;;5007211;28;20033;-56
2023/08/21 00:15:48;;;;;;;7.70;3.88;;;29.70;70.30;;;;;;5005892;28;20023;-55
2023/08/21 00:18:14;;;;;;;7.68;4.18;;;29.70;70.40;;;;;;5007197;28;20467;-56
2023/08/21 00:20:41;;;;;;;6.47;4.10;;;29.70;70.60;;;;;;5007184;28;20085;-56
2023/08/21 00:23:07;;;;;;;5.47;4.20;;;29.70;70.50;;;;;;5007117;28;20018;-56
2023/08/21 00:25:33;;;;;;;6.80;3.97;;;29.60;70.40;;;;;;5006943;28;20518;-56
2023/08/21 00:27:59;;;;;;;6.05;4.10;;;29.60;70.60;;;;;;5005732;28;20093;-56
2023/08/21 00:30:24;;;;;;;7.80;4.00;;;29.60;70.70;;;;;;5007126;28;20062;-56
2023/08/21 00:32:50;;;;;;;6.63;4.00;;;29.60;70.90;;;;;;5006943;28;20053;-56
2023/08/21 00:35:15;;;;;;;5.68;4.60;;;29.50;71.00;;;;;;5006930;28;20097;-56
2023/08/21 00:37:41;;;;;;;6.45;4.15;;;29.50;71.00;;;;;;5006818;28;20033;-56
2023/08/21 00:40:07;;;;;;;5.72;3.95;;;29.50;71.10;;;;;;5006646;28;20026;-56
2023/08/21 00:42:33;;;;;;;6.28;3.92;;;29.40;71.20;;;;;;5006850;28;20046;-56
2023/08/21 00:44:58;;;;;;;7.10;4.57;;;29.40;71.40;;;;;;5006884;28;20037;-56
2023/08/21 00:47:24;;;;;;;7.35;4.53;;;29.40;71.60;;;;;;5006603;28;20076;-54
2023/08/21 00:49:49;;;;;;;6.95;4.28;;;29.40;71.70;;;;;;5005136;28;20045;-56
2023/08/21 00:52:15;;;;;;;5.15;4.20;;;29.30;71.70;;;;;;5006503;28;20048;-56
2023/08/21 00:54:41;;;;;;;8.25;4.10;;;29.30;71.80;;;;;;5005037;28;20034;-56
2023/08/21 00:57:06;;;;;;;4.82;3.78;;;29.30;71.90;;;;;;5005054;28;20061;-56
2023/08/21 00:59:32;;;;;;;6.82;4.20;;;29.30;71.80;;;;;;5006178;28;20045;-56
2023/08/21 01:01:57;;;;;;;6.88;4.47;;;29.20;71.90;;;;;;5005762;28;20459;-55
2023/08/21 01:04:23;;;;;;;9.38;4.47;;;29.20;71.90;;;;;;5005201;28;20131;-55
2023/08/21 01:06:51;;;;;;;6.15;4.20;;;29.20;72.20;;;;;;5006113;28;20057;-56
2023/08/21 01:09:17;;;;;;;7.10;4.30;;;29.20;72.20;;;;;;5004662;28;20030;-55
2023/08/21 01:11:49;;;;;;;5.18;4.00;;;29.10;72.10;;;;;;5020918;28;20032;-56
2023/08/21 01:14:17;;;;;;;9.60;3.83;;;29.10;72.10;;;;;;5005950;28;20038;-56
2023/08/21 01:16:43;;;;;;;7.55;4.40;;;29.10;72.30;;;;;;5005889;28;20109;-56
2023/08/21 01:19:10;;;;;;;6.22;4.53;;;29.10;72.50;;;;;;5004556;28;20142;-56
2023/08/21 01:21:35;;;;;;;10.82;4.00;;;29.00;72.50;;;;;;5004695;28;20439;-56
2023/08/21 01:24:01;;;;;;;4.95;3.80;;;29.00;72.70;;;;;;5006029;28;20050;-56
2023/08/21 01:26:26;;;;;;;6.28;4.00;;;29.00;72.50;;;;;;5005756;28;20090;-56
2023/08/21 01:28:52;;;;;;;8.00;4.22;;;29.00;72.60;;;;;;5005936;28;20031;-56
2023/08/21 01:31:26;;;;;;;4.15;3.70;;;28.90;72.60;;;;;;5005487;28;20053;-56
2023/08/21 01:33:54;;;;;;;7.10;4.22;;;28.90;72.60;;;;;;5004375;28;20030;-55
2023/08/21 01:36:20;;;;;;;5.50;4.22;;;28.90;72.70;;;;;;5005715;28;20106;-56
2023/08/21 01:38:45;;;;;;;6.32;4.18;;;28.90;73.00;;;;;;5004256;28;20026;-56
2023/08/21 01:41:11;;;;;;;5.15;4.22;;;28.80;73.10;;;;;;5004390;28;20037;-54
2023/08/21 01:43:36;;;;;;;4.95;3.88;;;28.80;73.00;;;;;;5005857;28;20022;-56
2023/08/21 01:46:03;;;;;;;5.93;4.50;;;28.80;73.10;;;;;;5005554;28;20034;-56
2023/08/21 01:48:28;;;;;;;10.35;4.35;;;28.80;73.20;;;;;;5004287;28;20023;-56
2023/08/21 01:50:54;;;;;;;10.55;4.45;;;28.80;73.40;;;;;;5005628;28;20090;-56
2023/08/21 01:53:19;;;;;;;7.55;4.45;;;28.80;73.60;;;;;;5005551;28;20023;-56
2023/08/21 01:55:45;;;;;;;5.25;3.83;;;28.70;73.50;;;;;;5005605;28;20038;-56
2023/08/21 01:58:11;;;;;;;5.25;4.00;;;28.70;73.60;;;;;;5005534;28;20087;-56
2023/08/21 02:00:36;;;;;;;4.78;4.10;;;28.70;73.70;;;;;;5005138;28;20369;-56
2023/08/21 02:03:02;;;;;;;4.97;4.32;;;28.70;73.70;;;;;;5005345;28;20045;-56
2023/08/21 02:05:27;;;;;;;5.90;4.30;;;28.60;73.70;;;;;;5020303;28;20038;-57
2023/08/21 02:07:53;;;;;;;5.60;4.32;;;28.60;73.90;;;;;;5005202;28;20034;-56
2023/08/21 02:10:18;;;;;;;6.78;4.45;;;28.60;74.00;;;;;;5005433;28;20093;-56
2023/08/21 02:12:44;;;;;;;8.55;4.78;;;28.60;74.00;;;;;;5005336;28;20069;-56
2023/08/21 02:15:10;;;;;;;7.15;3.97;;;28.50;74.40;;;;;;5005249;28;20444;-56
2023/08/21 02:17:35;;;;;;;7.32;4.10;;;28.50;73.90;;;;;;5005200;28;20053;-56
2023/08/21 02:20:01;;;;;;;6.20;4.40;;;28.50;73.90;;;;;;5005005;28;20448;-56
2023/08/21 02:22:27;;;;;;;5.55;4.40;;;28.50;73.90;;;;;;5005285;28;20050;-56
2023/08/21 02:24:53;;;;;;;5.90;4.30;;;28.50;74.00;;;;;;5005267;28;20023;-56
2023/08/21 02:27:18;;;;;;;7.20;4.75;;;28.40;74.10;;;;;;5004966;28;20080;-56
2023/08/21 02:29:44;;;;;;;8.05;4.22;;;28.40;74.30;;;;;;5005267;28;20038;-56
2023/08/21 02:32:09;;;;;;;5.70;4.50;;;28.40;74.40;;;;;;5005097;28;20086;-55
2023/08/21 02:34:35;;;;;;;5.13;4.60;;;28.30;74.50;;;;;;5005094;28;20085;-56
2023/08/21 02:37:01;;;;;;;4.90;4.25;;;28.30;74.60;;;;;;5019869;28;20030;-56
2023/08/21 02:39:27;;;;;;;7.55;4.43;;;28.30;75.40;;;;;;5004767;28;20062;-56
2023/08/21 02:41:53;;;;;;;7.07;4.40;;;28.30;75.40;;;;;;5003804;28;20057;-56
2023/08/21 02:44:18;;;;;;;5.95;4.60;;;28.30;74.90;;;;;;5004855;28;20439;-56
2023/08/21 02:46:44;;;;;;;6.53;4.53;;;28.20;75.00;;;;;;5005081;28;20383;-56
2023/08/21 02:49:09;;;;;;;6.15;4.50;;;28.20;75.00;;;;;;5005004;28;20116;-56
2023/08/21 02:51:35;;;;;;;4.95;4.38;;;28.20;75.00;;;;;;5005003;28;20035;-56
2023/08/21 02:54:00;;;;;;;7.55;4.60;;;28.20;75.00;;;;;;5004782;28;20117;-56
2023/08/21 02:56:26;;;;;;;6.57;4.43;;;28.10;75.10;;;;;;5003550;28;20049;-56
2023/08/21 02:58:51;;;;;;;7.10;4.65;;;28.10;75.10;;;;;;5004937;28;20034;-56
2023/08/21 03:01:17;;;;;;;7.93;4.18;;;28.10;75.20;;;;;;5004903;28;20058;-57
2023/08/21 03:03:42;;;;;;;4.40;4.00;;;28.10;75.30;;;;;;5004799;28;20089;-56
2023/08/21 03:06:08;;;;;;;6.25;4.63;;;28.10;75.30;;;;;;5004616;28;20045;-56
2023/08/21 03:08:33;;;;;;;5.60;4.60;;;28.10;75.30;;;;;;5004892;28;20030;-56
2023/08/21 03:10:59;;;;;;;7.75;4.55;;;28.10;75.40;;;;;;5004999;28;20031;-56
2023/08/21 03:13:25;;;;;;;7.95;4.10;;;28.10;75.40;;;;;;5003449;28;20030;-56
2023/08/21 03:15:50;;;;;;;8.07;4.78;;;28.00;75.40;;;;;;5004805;28;20030;-56
2023/08/21 03:18:16;;;;;;;7.65;4.38;;;28.00;75.70;;;;;;5004696;28;20029;-56
2023/08/21 03:20:45;;;;;;;6.53;4.50;;;27.90;75.70;;;;;;5004622;28;20048;-56
2023/08/21 03:23:12;;;;;;;9.52;4.88;;;28.00;75.90;;;;;;5004797;28;20030;-56
2023/08/21 03:25:37;;;;;;;7.13;4.28;;;27.90;75.90;;;;;;5005931;28;20035;-56
2023/08/21 03:28:03;;;;;;;6.07;4.47;;;27.90;75.90;;;;;;5008261;28;20237;-56
2023/08/21 03:30:28;;;;;;;6.93;4.22;;;27.90;76.10;;;;;;5008184;28;20101;-56
2023/08/21 03:32:54;;;;;;;8.90;4.60;;;27.90;76.10;;;;;;5006786;28;20109;-56
2023/08/21 03:35:20;;;;;;;6.38;4.40;;;27.90;76.20;;;;;;5007858;28;20043;-56
2023/08/21 03:37:45;;;;;;;7.93;4.70;;;27.80;76.20;;;;;;5006699;28;20471;-55
2023/08/21 03:40:11;;;;;;;7.78;4.70;;;27.80;76.20;;;;;;5007920;28;20034;-56
2023/08/21 03:42:36;;;;;;;7.55;4.40;;;27.80;76.30;;;;;;5006415;28;20126;-56
2023/08/21 03:45:04;;;;;;;5.68;4.78;;;27.80;76.40;;;;;;5006564;28;20034;-56
2023/08/21 03:47:30;;;;;;;5.43;4.00;;;27.80;76.50;;;;;;5006568;28;20036;-56
2023/08/21 03:49:55;;;;;;;6.25;4.43;;;27.70;76.50;;;;;;5007769;28;20420;-56
2023/08/21 03:52:21;;;;;;;5.35;4.55;;;27.70;76.60;;;;;;5007827;28;20030;-56
2023/08/21 03:54:46;;;;;;;6.63;4.82;;;27.70;76.60;;;;;;5007541;28;20038;-56
2023/08/21 03:57:12;;;;;;;8.10;4.90;;;27.70;76.70;;;;;;5007669;28;20450;-56
2023/08/21 03:59:38;;;;;;;5.00;4.50;;;27.70;76.80;;;;;;5007638;28;20427;-56
2023/08/21 04:02:03;;;;;;;5.75;4.75;;;27.60;76.80;;;;;;5007637;28;20053;-56
2023/08/21 04:04:29;;;;;;;8.68;4.90;;;27.60;76.90;;;;;;5007467;28;20054;-56
2023/08/21 04:06:54;;;;;;;5.60;4.53;;;27.60;77.00;;;;;;5007298;28;20099;-57
2023/08/21 04:09:20;;;;;;;6.00;4.82;;;27.60;77.10;;;;;;5005964;28;20053;-56
2023/08/21 04:11:45;;;;;;;6.20;4.60;;;27.60;77.00;;;;;;5007344;28;20022;-56
2023/08/21 04:14:11;;;;;;;6.15;4.57;;;27.60;77.10;;;;;;5007401;28;20035;-56
2023/08/21 04:16:36;;;;;;;7.95;4.53;;;27.60;77.20;;;;;;5007365;28;20068;-56
2023/08/21 04:19:02;;;;;;;6.47;4.65;;;27.50;77.10;;;;;;5007100;28;20054;-56
2023/08/21 04:21:28;;;;;;;6.68;4.25;;;27.50;77.10;;;;;;5007189;28;20026;-56
2023/08/21 04:23:53;;;;;;;7.93;4.68;;;27.50;77.20;;;;;;5007079;28;20490;-56
2023/08/21 04:26:19;;;;;;;5.28;4.55;;;27.40;77.30;;;;;;5007146;28;20049;-56
2023/08/21 04:28:45;;;;;;;6.05;4.55;;;27.50;77.50;;;;;;5005877;28;20192;-56
2023/08/21 04:31:10;;;;;;;6.45;4.13;;;27.50;77.60;;;;;;5007100;28;20030;-55
2023/08/21 04:33:36;;;;;;;6.57;4.60;;;27.40;77.60;;;;;;5007094;28;20033;-56
2023/08/21 04:36:02;;;;;;;4.68;4.07;;;27.40;77.60;;;;;;5006696;28;20027;-56
2023/08/21 04:38:27;;;;;;;5.93;4.88;;;27.40;77.70;;;;;;5006486;28;20078;-56
2023/08/21 04:40:53;;;;;;;8.65;4.75;;;27.40;77.80;;;;;;5006927;28;20031;-56
2023/08/21 04:43:18;;;;;;;7.57;4.78;;;27.40;77.90;;;;;;5006889;28;20019;-56
2023/08/21 04:45:54;;;;;;;6.63;5.13;;;27.40;78.00;;;;;;5006803;28;20069;-56
2023/08/21 04:48:20;;;;;;;9.85;4.95;;;27.30;77.90;;;;;;5006725;28;20030;-56
2023/08/21 04:50:46;;;;;;;5.90;4.70;;;27.30;78.00;;;;;;5006705;28;20057;-56
2023/08/21 04:53:11;;;;;;;5.93;4.47;;;27.30;78.10;;;;;;5006678;28;20030;-56
2023/08/21 04:55:40;;;;;;;5.47;4.43;;;27.30;78.20;;;;;;5006569;28;20034;-56
2023/08/21 04:58:06;;;;;;;5.13;4.63;;;27.30;78.20;;;;;;5006416;28;20030;-56
2023/08/21 05:00:31;;;;;;;8.52;5.30;;;27.30;78.20;;;;;;5006358;28;20137;-56
2023/08/21 05:02:57;;;;;;;6.72;4.80;;;27.20;78.30;;;;;;5005101;28;20156;-56
2023/08/21 05:05:23;;;;;;;5.95;4.55;;;27.20;78.20;;;;;;5006389;28;20329;-56
2023/08/21 05:07:48;;;;;;;8.77;4.93;;;27.20;78.20;;;;;;5006203;28;20037;-56
2023/08/21 05:10:14;;;;;;;8.60;5.10;;;27.20;78.40;;;;;;5006235;28;20051;-56
2023/08/21 05:12:39;;;;;;;5.18;4.70;;;27.20;78.50;;;;;;5006236;28;20041;-56
2023/08/21 05:15:05;;;;;;;6.43;4.85;;;27.10;78.60;;;;;;5004745;28;20041;-56
2023/08/21 05:17:31;;;;;;;7.18;4.97;;;27.10;78.60;;;;;;5006225;28;20030;-56
2023/08/21 05:19:56;;;;;;;8.63;5.15;;;27.10;78.50;;;;;;5005981;28;20086;-56
2023/08/21 05:22:22;;;;;;;7.93;5.20;;;27.10;79.20;;;;;;5004661;28;20026;-56
2023/08/21 05:24:47;;;;;;;11.20;4.95;;;27.10;78.60;;;;;;5005852;28;20034;-56
2023/08/21 05:27:13;;;;;;;9.75;5.40;;;27.10;78.70;;;;;;5004718;28;20045;-55
2023/08/21 05:29:39;;;;;;;8.45;4.95;;;27.10;78.70;;;;;;5005977;28;20045;-56
2023/08/21 05:32:05;;;;;;;6.47;4.95;;;27.10;78.80;;;;;;5004698;28;20106;-56
2023/08/21 05:34:30;;;;;;;6.43;5.22;;;27.10;78.80;;;;;;5005870;28;20061;-56
2023/08/21 05:36:56;;;;;;;12.52;5.40;;;27.10;78.90;;;;;;5005778;28;20463;-56
2023/08/21 05:39:22;;;;;;;9.82;4.95;;;27.10;78.90;;;;;;5005568;28;20088;-55
2023/08/21 05:41:47;;;;;;;11.35;5.20;;;27.00;78.90;;;;;;5005662;28;20033;-56
2023/08/21 05:44:13;;;;;;;9.38;4.90;;;27.00;79.00;;;;;;5012825;28;20160;-56
2023/08/21 05:46:38;;;;;;;7.53;4.97;;;27.00;79.00;;;;;;5023079;28;20032;-56
2023/08/21 05:49:04;;;;;;;7.65;5.30;;;27.00;78.80;;;;;;5022691;28;20104;-56
2023/08/21 05:51:30;;;;;;;9.32;5.45;;;27.00;78.90;;;;;;5024931;28;20034;-56
2023/08/21 05:53:55;;;;;;;8.35;4.82;;;27.00;78.80;;;;;;5023057;28;20026;-56
2023/08/21 05:56:22;;;;;;;10.82;5.30;;;27.00;78.80;;;;;;5023182;28;20073;-56
2023/08/21 05:58:47;;;;;;;9.73;5.22;;;27.00;78.80;;;;;;5022804;28;20137;-56
2023/08/21 06:01:13;;;;;;;11.38;5.10;;;27.00;78.90;;;;;;5024242;28;20156;-56
2023/08/21 06:03:38;;;;;;;14.35;5.38;;;27.00;79.10;;;;;;5024728;28;20026;-56
2023/08/21 06:06:04;;;;;;;13.00;5.30;;;27.00;79.10;;;;;;5024708;28;20431;-56
2023/08/21 06:08:30;;;;;;;16.80;6.13;;;27.00;79.20;;;;;;5024767;28;20022;-56
2023/08/21 06:10:56;;;;;;;19.23;6.47;;;27.00;79.20;;;;;;5023875;28;20105;-56
2023/08/21 06:13:21;;;;;;;17.52;6.28;;;27.00;79.70;;;;;;5024998;28;20034;-56
2023/08/21 06:15:47;;;;;;;13.48;5.43;;;27.00;79.50;;;;;;5023334;28;20053;-56
2023/08/21 06:18:13;;;;;;;14.57;5.90;;;27.00;79.40;;;;;;5024781;28;20025;-56
2023/08/21 06:20:39;;;;;;;11.95;5.75;;;27.00;79.40;;;;;;5024749;28;20049;-56
2023/08/21 06:23:04;;;;;;;13.05;5.97;;;27.00;79.50;;;;;;5024600;28;20524;-56
2023/08/21 06:25:30;;;;;;;16.92;5.47;;;27.00;79.70;;;;;;5024625;28;20030;-56
2023/08/21 06:27:56;;;;;;;17.05;5.88;;;27.00;79.80;;;;;;5023311;28;20041;-55
2023/08/21 06:30:21;;;;;;;12.82;5.80;;;27.00;79.90;;;;;;5025068;28;20038;-56
2023/08/21 06:32:47;;;;;;;19.30;6.13;;;27.00;80.10;;;;;;5025058;28;20033;-56
2023/08/21 06:35:14;;;;;;;14.55;6.47;;;27.00;80.70;;;;;;5024675;28;20034;-55
2023/08/21 06:37:40;;;;;;;15.07;5.93;;;27.00;80.70;;;;;;5024547;28;20041;-54
2023/08/21 06:40:06;;;;;;;17.67;5.95;;;27.00;80.40;;;;;;5024521;28;20513;-55
2023/08/21 06:42:32;;;;;;;17.05;5.78;;;27.00;80.70;;;;;;5024680;28;20163;-56
2023/08/21 06:44:57;;;;;;;15.60;6.40;;;27.00;80.70;;;;;;5023630;28;20026;-56
2023/08/21 06:47:23;;;;;;;17.42;5.53;;;27.00;80.40;;;;;;5014432;28;20046;-55
2023/08/21 06:49:49;;;;;;;14.23;6.10;;;27.00;80.50;;;;;;5020237;28;20100;-56
2023/08/21 06:52:14;;;;;;;12.73;5.60;;;27.00;80.50;;;;;;5018523;28;20100;-56
2023/08/21 06:54:40;;;;;;;11.55;5.63;;;27.00;80.50;;;;;;5031893;28;20034;-56
2023/08/21 06:57:05;;;;;;;8.68;5.70;;;27.00;80.60;;;;;;5027927;28;20030;-56
2023/08/21 06:59:35;;;;;;;13.82;6.10;;;27.00;80.70;;;;;;5021229;28;20112;-56
2023/08/21 07:02:04;;;;;;;11.27;5.80;;;27.00;80.60;;;;;;5026977;28;20078;-56
2023/08/21 07:04:29;;;;;;;12.75;6.25;;;27.00;80.70;;;;;;5026545;28;20034;-56
2023/08/21 07:06:55;;;;;;;11.88;6.22;;;27.00;80.70;;;;;;5023328;28;20049;-56
2023/08/21 07:09:20;;;;;;;12.10;5.82;;;27.00;80.70;;;;;;5027327;28;20095;-56
2023/08/21 07:11:46;;;;;;;7.15;5.20;;;27.10;80.80;;;;;;5027217;28;20026;-56
2023/08/21 07:14:13;;;;;;;19.38;6.32;;;27.10;80.80;;;;;;5027169;28;20034;-56
2023/08/21 07:16:39;;;;;;;16.27;6.35;;;27.00;80.70;;;;;;5017105;28;20097;-56
2023/08/21 07:19:05;;;;;;;12.10;5.78;;;27.00;80.80;;;;;;5016918;28;20022;-56
2023/08/21 07:21:30;;;;;;;12.38;6.00;;;27.00;80.90;;;;;;5027404;28;20021;-56
2023/08/21 07:23:56;;;;;;;18.17;6.03;;;27.00;80.80;;;;;;5025729;28;20025;-56
2023/08/21 07:26:21;;;;;;;12.70;5.75;;;27.00;80.90;;;;;;5025800;28;20060;-56
2023/08/21 07:28:47;;;;;;;10.90;6.63;;;27.10;81.00;;;;;;5027089;28;20471;-56
2023/08/21 07:31:12;;;;;;;17.60;6.35;;;27.10;81.00;;;;;;5025773;28;20093;-56
2023/08/21 07:33:38;;;;;;;15.55;7.07;;;27.10;81.00;;;;;;5027286;28;20209;-56
2023/08/21 07:36:04;;;;;;;15.05;7.35;;;27.10;81.70;;;;;;5026946;28;20038;-56
2023/08/21 07:38:30;;;;;;;21.15;7.30;;;27.10;82.00;;;;;;5026870;28;20022;-56
2023/08/21 07:41:07;;;;;;;30.20;7.70;;;27.10;82.10;;;;;;5027767;28;20048;-56
2023/08/21 07:43:33;;;;;;;28.55;7.60;;;27.00;82.20;;;;;;5027283;28;20014;-56
2023/08/21 07:46:04;;;;;;;26.63;7.85;;;27.00;82.40;;;;;;5027402;28;20094;-56
2023/08/21 07:48:30;;;;;;;26.52;7.65;;;27.00;83.00;;;;;;5026008;28;20081;-56
2023/08/21 07:50:56;;;;;;;17.30;7.72;;;27.00;82.20;;;;;;5026972;28;20030;-56
2023/08/21 07:53:22;;;;;;;22.13;8.10;;;27.00;82.30;;;;;;5023567;28;20077;-56
2023/08/21 07:55:47;;;;;;;29.77;8.02;;;27.00;82.50;;;;;;5040302;28;20250;-56
2023/08/21 07:58:13;;;;;;;28.45;8.73;;;27.00;82.70;;;;;;5023598;28;20040;-55
2023/08/21 08:00:39;;;;;;;27.98;9.07;;;27.00;82.50;;;;;;5022712;28;20064;-56
2023/08/21 08:03:05;;;;;;;35.45;9.27;;;27.00;82.70;;;;;;5024614;28;20026;-56
2023/08/21 08:05:31;;;;;;;58.28;11.73;;;27.10;82.70;;;;;;5022820;28;20113;-56
2023/08/21 08:07:57;;;;;;;26.10;10.05;;;27.00;82.40;;;;;;5024152;28;20029;-56
2023/08/21 08:10:23;;;;;;;45.17;10.60;;;27.00;82.70;;;;;;5025361;28;20041;-56
2023/08/21 08:12:49;;;;;;;39.08;9.52;;;27.10;82.90;;;;;;5025951;28;20026;-56
2023/08/21 08:15:14;;;;;;;44.47;10.13;;;27.10;82.80;;;;;;5026039;28;20045;-55
2023/08/21 08:17:40;;;;;;;53.38;11.60;;;27.10;82.90;;;;;;5025916;28;20034;-56
2023/08/21 08:20:06;;;;;;;52.05;11.80;;;27.10;83.00;;;;;;5024406;28;20038;-56
2023/08/21 08:22:31;;;;;;;95.72;14.85;;;27.10;82.80;;;;;;5026280;28;20398;-56
2023/08/21 08:24:57;;;;;;;74.05;12.95;;;27.10;82.60;;;;;;5026430;28;20030;-56
2023/08/21 08:27:22;;;;;;;100.57;14.02;;;27.10;82.80;;;;;;5020379;28;20034;-56
2023/08/21 08:29:49;;;;;;;104.75;15.02;;;27.10;82.70;;;;;;5006399;28;20038;-56
2023/08/21 08:32:14;;;;;;;109.45;15.73;;;27.20;82.80;;;;;;5006617;28;20037;-55
2023/08/21 08:34:40;;;;;;;70.88;13.00;;;27.20;82.80;;;;;;5006370;28;20042;-56
2023/08/21 08:37:05;;;;;;;69.60;12.77;;;27.20;82.90;;;;;;5017209;28;20406;-56
2023/08/21 08:39:31;;;;;;;56.83;12.90;;;27.20;82.70;;;;;;5026173;28;20061;-56
2023/08/21 08:41:59;;;;;;;86.47;14.68;;;27.20;82.90;;;;;;5026282;28;20064;-56
2023/08/21 08:44:26;;;;;;;112.32;18.13;;;27.30;82.80;;;;;;5026216;28;20075;-55
2023/08/21 08:46:52;;;;;;;99.85;17.33;;;27.20;82.60;;;;;;5008438;28;20036;-56
2023/08/21 08:49:17;;;;;;;105.38;15.38;;;27.30;82.60;;;;;;5006568;28;20121;-56
2023/08/21 08:51:43;;;;;;;99.25;15.10;;;27.30;82.70;;;;;;5006535;28;20027;-56
2023/08/21 08:54:08;;;;;;;99.07;17.50;;;27.30;82.50;;;;;;5005240;28;20045;-56
2023/08/21 08:56:34;;;;;;;73.45;13.35;;;27.30;82.40;;;;;;5005110;28;20027;-56
2023/08/21 08:59:00;;;;;;;97.97;16.35;;;27.30;82.60;;;;;;5005932;28;20113;-56
2023/08/21 09:01:25;;;;;;;70.38;13.98;;;27.30;82.80;;;;;;5016296;28;20037;-56
2023/08/21 09:03:51;;;;;;;103.03;17.33;;;27.40;82.70;;;;;;5023228;28;20026;-56
2023/08/21 09:06:16;;;;;;;77.28;13.73;;;27.40;82.30;;;;;;5025718;28;20030;-56
2023/08/21 09:08:55;;;;;;;76.43;14.50;;;27.40;82.60;;;;;;5024446;28;20455;-56
2023/08/21 09:11:21;;;;;;;108.38;15.95;;;27.50;82.30;;;;;;5024253;28;20126;-56
2023/08/21 09:13:51;;;;;;;69.35;13.85;;;27.40;82.80;;;;;;5009044;28;20118;-56
2023/08/21 09:16:21;;;;;;;122.57;18.98;;;27.40;82.30;;;;;;5016366;28;20061;-56
2023/08/21 09:18:54;;;;;;;96.65;16.42;;;27.50;82.90;;;;;;5012250;28;20030;-56
2023/08/21 09:21:20;;;;;;;97.05;17.58;;;27.50;82.80;;;;;;5018135;28;20068;-56
2023/08/21 09:23:46;;;;;;;122.95;18.27;;;27.60;83.20;;;;;;5024582;28;20042;-56
2023/08/21 09:26:21;;;;;;;140.65;22.58;;;27.60;83.20;;;;;;5025458;28;20037;-56
2023/08/21 09:28:48;;;;;;;155.90;22.42;;;27.60;83.20;;;;;;5023928;28;20022;-56
2023/08/21 09:31:13;;;;;;;135.43;20.58;;;27.60;83.30;;;;;;5022534;28;20069;-56
2023/08/21 09:33:39;;;;;;;102.82;18.25;;;27.60;83.50;;;;;;5019923;28;20029;-56
2023/08/21 09:36:05;;;;;;;111.85;19.58;;;27.70;84.10;;;;;;5021996;28;20026;-56
2023/08/21 09:38:30;;;;;;;85.47;16.52;;;27.70;83.40;;;;;;5022978;28;20045;-56
2023/08/21 09:40:56;;;;;;;131.15;19.55;;;27.80;83.40;;;;;;5020547;28;20041;-56
2023/08/21 09:43:22;;;;;;;93.22;17.20;;;27.80;83.20;;;;;;5024157;28;20014;-56
2023/08/21 09:45:48;;;;;;;85.18;16.10;;;27.80;82.90;;;;;;5022628;28;20048;-56
2023/08/21 09:48:14;;;;;;;116.85;19.05;;;27.90;83.10;;;;;;5023229;28;20109;-56
2023/08/21 09:50:42;;;;;;;142.80;20.20;;;27.90;83.20;;;;;;5018084;28;20438;-56
2023/08/21 09:53:08;;;;;;;98.97;17.83;;;27.90;83.40;;;;;;5021557;28;20113;-56
2023/08/21 09:55:34;;;;;;;123.95;17.33;;;27.90;83.20;;;;;;5023822;28;20068;-56
2023/08/21 09:58:00;;;;;;;87.30;16.83;;;28.00;83.20;;;;;;5032337;28;20030;-56
2023/08/21 10:00:33;;;;;;;93.75;16.00;;;28.00;83.20;;;;;;5022844;28;20029;-56
2023/08/21 10:03:07;;;;;;;78.28;16.15;;;28.00;83.00;;;;;;5024408;28;20041;-55
2023/08/21 10:05:33;;;;;;;73.82;14.70;;;28.00;82.70;;;;;;5018167;28;20742;-56
2023/08/21 10:08:02;;;;;;;73.13;16.05;;;28.10;82.70;;;;;;5021125;28;20061;-56
2023/08/21 10:10:32;;;;;;;85.18;16.23;;;28.10;82.70;;;;;;5021640;28;20036;-56
2023/08/21 10:12:59;;;;;;;81.00;15.50;;;28.10;82.60;;;;;;5022473;28;20030;-56
2023/08/21 10:15:25;;;;;;;104.88;16.88;;;28.20;82.60;;;;;;5019297;28;20069;-56
2023/08/21 10:17:51;;;;;;;95.18;17.27;;;28.20;82.50;;;;;;5014870;28;20030;-57
2023/08/21 10:20:22;;;;;;;93.20;16.85;;;28.30;82.70;;;;;;5023042;28;20057;-56
2023/08/21 10:22:54;;;;;;;85.28;14.60;;;28.30;82.40;;;;;;5023271;28;20048;-56
2023/08/21 10:25:23;;;;;;;72.40;14.98;;;28.30;82.20;;;;;;5012748;28;20030;-56
2023/08/21 10:27:52;;;;;;;106.85;16.05;;;28.30;81.90;;;;;;5004813;28;20030;-56
2023/08/21 10:30:25;;;;;;;88.63;16.15;;;28.30;81.80;;;;;;5004819;28;20125;-56
2023/08/21 10:32:52;;;;;;;83.60;15.82;;;28.40;81.70;;;;;;5003678;28;20034;-56
2023/08/21 10:35:28;;;;;;;80.97;15.43;;;28.40;81.70;;;;;;5019404;28;20034;-55
2023/08/21 10:38:17;;;;;;;87.00;15.57;;;28.40;81.40;;;;;;5019794;28;20030;-56
2023/08/21 10:41:05;;;;;;;83.50;13.80;;;28.40;81.30;;;;;;5026254;28;20095;-56
2023/08/21 10:43:43;;;;;;;93.53;15.55;;;28.50;81.20;;;;;;5025383;28;20037;-56
2023/08/21 10:46:09;;;;;;;76.78;15.23;;;28.50;81.80;;;;;;5024673;28;20064;-56
2023/08/21 10:48:36;;;;;;;97.70;16.63;;;28.60;81.00;;;;;;5025507;28;20022;-55
2023/08/21 10:51:03;;;;;;;88.22;14.55;;;28.60;80.80;;;;;;5027361;28;20085;-55
2023/08/21 10:53:29;;;;;;;62.90;14.30;;;28.70;80.60;;;;;;5024051;28;20026;-56
2023/08/21 10:55:55;;;;;;;78.75;14.80;;;28.70;80.40;;;;;;5026670;28;20467;-56
2023/08/21 10:58:21;;;;;;;76.78;15.07;;;28.70;80.10;;;;;;5026548;28;20057;-56
2023/08/21 11:00:47;;;;;;;73.75;16.30;;;28.80;80.00;;;;;;5026769;28;20044;-56
2023/08/21 11:03:12;;;;;;;79.93;13.93;;;28.90;79.80;;;;;;5027774;28;20026;-56
2023/08/21 11:05:38;;;;;;;86.20;14.38;;;28.90;79.60;;;;;;5019241;28;20057;-56
2023/08/21 11:08:03;;;;;;;61.38;13.13;;;29.00;79.50;;;;;;5022051;28;20049;-56
2023/08/21 11:10:30;;;;;;;72.35;12.52;;;29.00;79.30;;;;;;5024508;28;20038;-56
2023/08/21 11:12:57;;;;;;;71.20;14.23;;;29.10;79.30;;;;;;5026214;28;20030;-56
2023/08/21 11:15:23;;;;;;;50.65;11.30;;;29.10;79.00;;;;;;5026494;28;20034;-56
2023/08/21 11:17:53;;;;;;;62.88;12.18;;;29.20;79.50;;;;;;5015185;28;20018;-56
2023/08/21 11:20:19;;;;;;;60.63;12.38;;;29.20;78.60;;;;;;5027519;28;20026;-56
2023/08/21 11:22:45;;;;;;;58.67;12.32;;;29.30;78.30;;;;;;5027997;28;20048;-56
2023/08/21 11:25:14;;;;;;;62.05;11.77;;;29.30;78.10;;;;;;5028144;28;20030;-56
2023/08/21 11:27:39;;;;;;;82.93;15.25;;;29.40;77.90;;;;;;5022170;28;20056;-56
2023/08/21 11:30:09;;;;;;;43.60;11.63;;;29.40;77.80;;;;;;5026131;28;20421;-55
2023/08/21 11:32:34;;;;;;;55.00;11.27;;;29.40;77.60;;;;;;5027716;28;20117;-56
2023/08/21 11:35:00;;;;;;;57.35;11.45;;;29.50;77.40;;;;;;5027076;28;20033;-56
2023/08/21 11:37:26;;;;;;;49.70;11.65;;;29.60;76.90;;;;;;5031250;28;20406;-56
2023/08/21 11:39:57;;;;;;;47.60;10.23;;;29.60;76.60;;;;;;5027025;28;20065;-56
2023/08/21 11:42:31;;;;;;;39.72;10.43;;;29.70;76.10;;;;;;5022423;28;20026;-57
2023/08/21 11:44:56;;;;;;;38.55;10.73;;;29.80;75.80;;;;;;5025286;28;20211;-56
2023/08/21 11:47:22;;;;;;;41.38;9.57;;;29.90;76.20;;;;;;5041707;28;20022;-56
2023/08/21 11:49:49;;;;;;;57.60;11.07;;;30.00;75.60;;;;;;5025845;28;20474;-56
2023/08/21 11:52:21;;;;;;;47.65;11.02;;;30.10;75.30;;;;;;5027241;28;20037;-56
2023/08/21 11:54:50;;;;;;;58.58;10.85;;;30.10;75.00;;;;;;5024174;28;20052;-56
2023/08/21 11:57:16;;;;;;;44.03;10.73;;;30.20;74.70;;;;;;5027043;28;20045;-56
2023/08/21 11:59:42;;;;;;;36.05;10.23;;;30.30;74.40;;;;;;5027249;28;20053;-56
2023/08/21 12:02:14;;;;;;;38.03;10.25;;;30.40;74.00;;;;;;5027049;28;20018;-56
2023/08/21 12:04:40;;;;;;;31.48;9.35;;;30.50;73.50;;;;;;5027130;28;20030;-56
2023/08/21 12:07:06;;;;;;;36.78;9.05;;;30.60;73.00;;;;;;5026845;28;20129;-56
2023/08/21 12:09:32;;;;;;;42.47;9.60;;;30.60;72.30;;;;;;5026857;28;20034;-56
2023/08/21 12:11:57;;;;;;;33.17;8.60;;;30.70;71.80;;;;;;5026807;28;20132;-56
2023/08/21 12:14:23;;;;;;;34.08;9.30;;;30.70;70.40;;;;;;5025589;28;20029;-56
2023/08/21 12:16:48;;;;;;;42.40;9.20;;;30.80;69.60;;;;;;5026893;28;20304;-56
2023/08/21 12:19:14;;;;;;;45.85;9.07;;;30.90;69.40;;;;;;5025378;28;20040;-56
2023/08/21 12:21:40;;;;;;;34.45;7.90;;;31.00;68.80;;;;;;5026921;28;20030;-56
2023/08/21 12:24:06;;;;;;;42.67;8.45;;;31.00;68.50;;;;;;5021112;28;20033;-56
2023/08/21 12:26:34;;;;;;;40.88;8.80;;;31.10;68.70;;;;;;5024158;28;20029;-56
2023/08/21 12:29:00;;;;;;;43.67;9.02;;;31.20;68.60;;;;;;5041503;28;20053;-56
2023/08/21 12:31:26;;;;;;;38.28;7.80;;;31.20;68.60;;;;;;5013173;28;20026;-56
2023/08/21 12:33:52;;;;;;;44.17;8.75;;;31.40;68.50;;;;;;5008113;28;20034;-56